sensor_id;sensor_type;location;lat;lon;timestamp;temperature;humidity
3976;DHT22;2002;48.812;9.180;2023-07-16T00:01:56;22.40;39.10
3976;DHT22;2002;48.812;9.180;2023-07-16T00:04:22;22.50;44.70
3976;DHT22;2002;48.812;9.180;2023-07-16T00:06:47;22.50;41.40
3976;DHT22;2002;48.812;9.180;2023-07-16T00:09:13;22.40;37.00
3976;DHT22;2002;48.812;9.180;2023-07-16T00:11:38;22.30;47.90
3976;DHT22;2002;48.812;9.180;2023-07-16T00:14:04;22.30;48.10
3976;DHT22;2002;48.812;9.180;2023-07-16T00:16:30;22.40;46.90
3976;DHT22;2002;48.812;9.180;2023-07-16T00:18:56;22.50;49.00
3976;DHT22;2002;48.812;9.180;2023-07-16T00:21:22;22.50;47.50
3976;DHT22;2002;48.812;9.180;2023-07-16T00:23:47;22.40;48.10
3976;DHT22;2002;48.812;9.180;2023-07-16T00:26:13;22.30;44.70
3976;DHT22;2002;48.812;9.180;2023-07-16T00:28:39;22.40;44.90
3976;DHT22;2002;48.812;9.180;2023-07-16T00:31:04;22.50;48.00
3976;DHT22;2002;48.812;9.180;2023-07-16T00:33:30;22.50;47.70
3976;DHT22;2002;48.812;9.180;2023-07-16T00:35:56;22.50;48.40
3976;DHT22;2002;48.812;9.180;2023-07-16T00:38:21;22.40;53.10
3976;DHT22;2002;48.812;9.180;2023-07-16T00:40:47;22.40;55.90
3976;DHT22;2002;48.812;9.180;2023-07-16T00:43:13;22.30;61.10
3976;DHT22;2002;48.812;9.180;2023-07-16T00:45:39;22.40;58.00
3976;DHT22;2002;48.812;9.180;2023-07-16T00:48:06;22.50;53.60
3976;DHT22;2002;48.812;9.180;2023-07-16T00:50:34;22.50;51.50
3976;DHT22;2002;48.812;9.180;2023-07-16T00:53:08;22.50;53.20
3976;DHT22;2002;48.812;9.180;2023-07-16T00:55:34;22.60;51.60
3976;DHT22;2002;48.812;9.180;2023-07-16T00:58:04;22.50;52.80
3976;DHT22;2002;48.812;9.180;2023-07-16T01:00:33;22.30;53.50
3976;DHT22;2002;48.812;9.180;2023-07-16T01:03:01;22.30;53.30
3976;DHT22;2002;48.812;9.180;2023-07-16T01:05:34;22.40;49.20
3976;DHT22;2002;48.812;9.180;2023-07-16T01:08:04;22.50;50.40
3976;DHT22;2002;48.812;9.180;2023-07-16T01:10:30;22.50;53.10
3976;DHT22;2002;48.812;9.180;2023-07-16T01:12:57;22.40;50.00
3976;DHT22;2002;48.812;9.180;2023-07-16T01:15:24;22.40;46.70
3976;DHT22;2002;48.812;9.180;2023-07-16T01:17:49;22.40;47.20
3976;DHT22;2002;48.812;9.180;2023-07-16T01:20:15;22.50;47.90
3976;DHT22;2002;48.812;9.180;2023-07-16T01:26:02;22.60;49.10
3976;DHT22;2002;48.812;9.180;2023-07-16T01:31:16;22.40;50.30
3976;DHT22;2002;48.812;9.180;2023-07-16T01:33:43;22.30;52.40
3976;DHT22;2002;48.812;9.180;2023-07-16T01:36:09;22.40;55.80
3976;DHT22;2002;48.812;9.180;2023-07-16T01:38:36;22.50;57.90
3976;DHT22;2002;48.812;9.180;2023-07-16T01:41:02;22.50;80.00
3976;DHT22;2002;48.812;9.180;2023-07-16T01:43:27;22.50;56.70
3976;DHT22;2002;48.812;9.180;2023-07-16T01:45:53;22.40;57.70
3976;DHT22;2002;48.812;9.180;2023-07-16T01:50:55;22.40;61.10
3976;DHT22;2002;48.812;9.180;2023-07-16T01:53:20;22.40;58.80
3976;DHT22;2002;48.812;9.180;2023-07-16T01:55:46;22.50;59.00
3976;DHT22;2002;48.812;9.180;2023-07-16T01:58:11;22.50;55.90
3976;DHT22;2002;48.812;9.180;2023-07-16T02:00:37;22.50;83.10
3976;DHT22;2002;48.812;9.180;2023-07-16T02:03:03;22.50;58.10
3976;DHT22;2002;48.812;9.180;2023-07-16T02:05:28;22.50;57.00
3976;DHT22;2002;48.812;9.180;2023-07-16T02:07:54;22.30;59.70
3976;DHT22;2002;48.812;9.180;2023-07-16T02:10:19;22.40;57.90
3976;DHT22;2002;48.812;9.180;2023-07-16T02:12:45;22.40;67.20
3976;DHT22;2002;48.812;9.180;2023-07-16T02:15:10;22.50;53.60
3976;DHT22;2002;48.812;9.180;2023-07-16T02:17:36;22.50;56.10
3976;DHT22;2002;48.812;9.180;2023-07-16T02:20:02;22.50;56.00
3976;DHT22;2002;48.812;9.180;2023-07-16T02:22:30;22.50;57.10
3976;DHT22;2002;48.812;9.180;2023-07-16T02:24:56;22.50;57.60
3976;DHT22;2002;48.812;9.180;2023-07-16T02:27:22;22.30;55.60
3976;DHT22;2002;48.812;9.180;2023-07-16T02:29:47;22.40;55.30
3976;DHT22;2002;48.812;9.180;2023-07-16T02:32:13;22.50;59.60
3976;DHT22;2002;48.812;9.180;2023-07-16T02:34:38;22.50;55.80
3976;DHT22;2002;48.812;9.180;2023-07-16T02:37:04;22.50;59.70
3976;DHT22;2002;48.812;9.180;2023-07-16T02:39:29;22.50;57.70
3976;DHT22;2002;48.812;9.180;2023-07-16T02:41:55;22.50;59.70
3976;DHT22;2002;48.812;9.180;2023-07-16T02:44:21;22.40;61.30
3976;DHT22;2002;48.812;9.180;2023-07-16T02:46:46;22.40;60.90
3976;DHT22;2002;48.812;9.180;2023-07-16T02:49:12;22.50;62.40
3976;DHT22;2002;48.812;9.180;2023-07-16T02:51:37;22.50;62.10
3976;DHT22;2002;48.812;9.180;2023-07-16T02:54:03;22.30;55.60
3976;DHT22;2002;48.812;9.180;2023-07-16T02:56:28;22.40;56.00
3976;DHT22;2002;48.812;9.180;2023-07-16T02:58:54;22.50;56.50
3976;DHT22;2002;48.812;9.180;2023-07-16T03:01:19;22.50;55.90
3976;DHT22;2002;48.812;9.180;2023-07-16T03:03:45;22.50;56.30
3976;DHT22;2002;48.812;9.180;2023-07-16T03:06:10;22.50;53.90
3976;DHT22;2002;48.812;9.180;2023-07-16T03:08:36;22.50;55.40
3976;DHT22;2002;48.812;9.180;2023-07-16T03:11:02;22.40;53.80
3976;DHT22;2002;48.812;9.180;2023-07-16T03:13:27;22.40;56.10
3976;DHT22;2002;48.812;9.180;2023-07-16T03:15:53;22.50;56.20
3976;DHT22;2002;48.812;9.180;2023-07-16T03:18:18;22.50;54.00
3976;DHT22;2002;48.812;9.180;2023-07-16T03:20:44;22.50;55.30
3976;DHT22;2002;48.812;9.180;2023-07-16T03:23:10;22.50;59.80
3976;DHT22;2002;48.812;9.180;2023-07-16T03:25:36;22.50;59.10
3976;DHT22;2002;48.812;9.180;2023-07-16T03:28:01;22.50;55.80
3976;DHT22;2002;48.812;9.180;2023-07-16T03:30:27;22.40;49.50
3976;DHT22;2002;48.812;9.180;2023-07-16T03:32:52;22.40;48.80
3976;DHT22;2002;48.812;9.180;2023-07-16T03:35:18;22.50;54.00
3976;DHT22;2002;48.812;9.180;2023-07-16T03:37:43;22.50;53.90
3976;DHT22;2002;48.812;9.180;2023-07-16T03:40:17;22.50;53.60
3976;DHT22;2002;48.812;9.180;2023-07-16T03:42:43;22.50;56.80
3976;DHT22;2002;48.812;9.180;2023-07-16T03:45:10;22.60;72.00
3976;DHT22;2002;48.812;9.180;2023-07-16T03:47:36;22.60;82.70
3976;DHT22;2002;48.812;9.180;2023-07-16T03:50:02;22.40;51.50
3976;DHT22;2002;48.812;9.180;2023-07-16T03:52:28;22.40;52.70
3976;DHT22;2002;48.812;9.180;2023-07-16T03:54:54;22.50;53.20
3976;DHT22;2002;48.812;9.180;2023-07-16T03:57:20;22.50;55.80
3976;DHT22;2002;48.812;9.180;2023-07-16T03:59:46;22.50;59.10
3976;DHT22;2002;48.812;9.180;2023-07-16T04:02:11;22.50;56.80
3976;DHT22;2002;48.812;9.180;2023-07-16T04:04:37;22.50;59.10
3976;DHT22;2002;48.812;9.180;2023-07-16T04:07:03;22.40;50.00
3976;DHT22;2002;48.812;9.180;2023-07-16T04:09:28;22.40;55.00
3976;DHT22;2002;48.812;9.180;2023-07-16T04:11:54;22.50;52.00
3976;DHT22;2002;48.812;9.180;2023-07-16T04:14:19;22.50;54.30
3976;DHT22;2002;48.812;9.180;2023-07-16T04:16:45;22.50;54.70
3976;DHT22;2002;48.812;9.180;2023-07-16T04:19:10;22.50;55.60
3976;DHT22;2002;48.812;9.180;2023-07-16T04:21:36;22.50;56.50
3976;DHT22;2002;48.812;9.180;2023-07-16T04:24:05;22.50;59.20
3976;DHT22;2002;48.812;9.180;2023-07-16T04:26:31;22.50;54.30
3976;DHT22;2002;48.812;9.180;2023-07-16T04:28:56;22.40;55.80
3976;DHT22;2002;48.812;9.180;2023-07-16T04:31:22;22.40;56.70
3976;DHT22;2002;48.812;9.180;2023-07-16T04:33:48;22.50;57.40
3976;DHT22;2002;48.812;9.180;2023-07-16T04:36:14;22.50;56.00
3976;DHT22;2002;48.812;9.180;2023-07-16T04:38:40;22.50;60.40
3976;DHT22;2002;48.812;9.180;2023-07-16T04:41:05;22.50;57.90
3976;DHT22;2002;48.812;9.180;2023-07-16T04:43:31;22.50;55.10
3976;DHT22;2002;48.812;9.180;2023-07-16T04:45:56;22.40;49.60
3976;DHT22;2002;48.812;9.180;2023-07-16T04:48:22;22.40;52.00
3976;DHT22;2002;48.812;9.180;2023-07-16T04:50:48;22.50;57.60
3976;DHT22;2002;48.812;9.180;2023-07-16T04:53:13;22.50;55.20
3976;DHT22;2002;48.812;9.180;2023-07-16T04:55:40;22.50;60.40
3976;DHT22;2002;48.812;9.180;2023-07-16T04:58:06;22.50;84.20
3976;DHT22;2002;48.812;9.180;2023-07-16T05:00:32;22.50;61.80
3976;DHT22;2002;48.812;9.180;2023-07-16T05:02:59;22.50;62.30
3976;DHT22;2002;48.812;9.180;2023-07-16T05:05:24;22.40;59.00
3976;DHT22;2002;48.812;9.180;2023-07-16T05:07:50;22.40;63.20
3976;DHT22;2002;48.812;9.180;2023-07-16T05:10:15;22.50;59.00
3976;DHT22;2002;48.812;9.180;2023-07-16T05:12:41;22.50;58.10
3976;DHT22;2002;48.812;9.180;2023-07-16T05:15:07;22.50;55.30
3976;DHT22;2002;48.812;9.180;2023-07-16T05:17:33;22.50;54.90
3976;DHT22;2002;48.812;9.180;2023-07-16T05:19:58;22.50;58.00
3976;DHT22;2002;48.812;9.180;2023-07-16T05:22:24;22.50;61.80
3976;DHT22;2002;48.812;9.180;2023-07-16T05:24:49;22.40;53.00
3976;DHT22;2002;48.812;9.180;2023-07-16T05:27:15;22.30;51.00
3976;DHT22;2002;48.812;9.180;2023-07-16T05:29:40;22.40;55.70
3976;DHT22;2002;48.812;9.180;2023-07-16T05:32:06;22.50;60.50
3976;DHT22;2002;48.812;9.180;2023-07-16T05:34:32;22.50;54.50
3976;DHT22;2002;48.812;9.180;2023-07-16T05:36:58;22.50;59.20
3976;DHT22;2002;48.812;9.180;2023-07-16T05:39:24;22.50;53.70
3976;DHT22;2002;48.812;9.180;2023-07-16T05:41:50;22.50;56.70
3976;DHT22;2002;48.812;9.180;2023-07-16T05:44:15;22.30;54.80
3976;DHT22;2002;48.812;9.180;2023-07-16T05:46:41;22.40;55.70
3976;DHT22;2002;48.812;9.180;2023-07-16T05:49:07;22.50;60.20
3976;DHT22;2002;48.812;9.180;2023-07-16T05:51:32;22.50;58.40
3976;DHT22;2002;48.812;9.180;2023-07-16T05:53:58;22.50;63.10
3976;DHT22;2002;48.812;9.180;2023-07-16T05:56:23;22.50;65.40
3976;DHT22;2002;48.812;9.180;2023-07-16T05:58:49;22.50;63.50
3976;DHT22;2002;48.812;9.180;2023-07-16T06:01:14;22.50;68.90
3976;DHT22;2002;48.812;9.180;2023-07-16T06:03:40;22.40;58.50
3976;DHT22;2002;48.812;9.180;2023-07-16T06:06:08;22.40;61.80
3976;DHT22;2002;48.812;9.180;2023-07-16T06:08:34;22.40;54.30
3976;DHT22;2002;48.812;9.180;2023-07-16T06:10:59;22.50;57.50
3976;DHT22;2002;48.812;9.180;2023-07-16T06:13:25;22.50;58.30
3976;DHT22;2002;48.812;9.180;2023-07-16T06:15:50;22.50;60.60
3976;DHT22;2002;48.812;9.180;2023-07-16T06:18:16;22.50;66.60
3976;DHT22;2002;48.812;9.180;2023-07-16T06:20:45;22.40;53.80
3976;DHT22;2002;48.812;9.180;2023-07-16T06:23:14;22.10;49.00
3976;DHT22;2002;48.812;9.180;2023-07-16T06:25:42;22.00;64.10
3976;DHT22;2002;48.812;9.180;2023-07-16T06:28:12;22.20;59.10
3976;DHT22;2002;48.812;9.180;2023-07-16T06:30:37;22.20;63.70
3976;DHT22;2002;48.812;9.180;2023-07-16T06:33:03;22.30;65.00
3976;DHT22;2002;48.812;9.180;2023-07-16T06:35:29;22.40;62.80
3976;DHT22;2002;48.812;9.180;2023-07-16T06:37:54;22.40;69.40
3976;DHT22;2002;48.812;9.180;2023-07-16T06:40:20;22.40;71.00
3976;DHT22;2002;48.812;9.180;2023-07-16T06:42:45;22.30;64.30
3976;DHT22;2002;48.812;9.180;2023-07-16T06:45:11;22.10;54.10
3976;DHT22;2002;48.812;9.180;2023-07-16T06:47:36;22.00;52.00
3976;DHT22;2002;48.812;9.180;2023-07-16T06:50:02;22.10;67.10
3976;DHT22;2002;48.812;9.180;2023-07-16T06:52:28;22.10;73.60
3976;DHT22;2002;48.812;9.180;2023-07-16T06:54:54;22.20;71.40
3976;DHT22;2002;48.812;9.180;2023-07-16T06:57:21;22.30;74.30
3976;DHT22;2002;48.812;9.180;2023-07-16T06:59:46;22.30;75.40
3976;DHT22;2002;48.812;9.180;2023-07-16T07:02:12;22.30;75.30
3976;DHT22;2002;48.812;9.180;2023-07-16T07:04:38;22.30;81.60
3976;DHT22;2002;48.812;9.180;2023-07-16T07:07:04;22.30;72.70
3976;DHT22;2002;48.812;9.180;2023-07-16T07:09:29;22.40;67.00
3976;DHT22;2002;48.812;9.180;2023-07-16T07:11:55;22.20;69.90
3976;DHT22;2002;48.812;9.180;2023-07-16T07:14:20;22.10;73.30
3976;DHT22;2002;48.812;9.180;2023-07-16T07:16:46;21.90;65.50
3976;DHT22;2002;48.812;9.180;2023-07-16T07:19:11;21.90;58.70
3976;DHT22;2002;48.812;9.180;2023-07-16T07:21:37;22.00;70.00
3976;DHT22;2002;48.812;9.180;2023-07-16T07:24:03;22.10;82.60
3976;DHT22;2002;48.812;9.180;2023-07-16T07:26:28;22.20;79.20
3976;DHT22;2002;48.812;9.180;2023-07-16T07:28:54;22.20;80.00
3976;DHT22;2002;48.812;9.180;2023-07-16T07:31:19;22.20;77.40
3976;DHT22;2002;48.812;9.180;2023-07-16T07:33:45;22.30;77.50
3976;DHT22;2002;48.812;9.180;2023-07-16T07:36:11;22.30;99.90
3976;DHT22;2002;48.812;9.180;2023-07-16T07:38:36;22.10;68.00
3976;DHT22;2002;48.812;9.180;2023-07-16T07:41:02;22.00;68.10
3976;DHT22;2002;48.812;9.180;2023-07-16T07:43:27;21.90;55.70
3976;DHT22;2002;48.812;9.180;2023-07-16T07:45:53;21.80;49.90
3976;DHT22;2002;48.812;9.180;2023-07-16T07:48:18;21.80;57.70
3976;DHT22;2002;48.812;9.180;2023-07-16T07:50:46;22.00;71.00
3976;DHT22;2002;48.812;9.180;2023-07-16T07:53:12;22.10;74.90
3976;DHT22;2002;48.812;9.180;2023-07-16T07:55:37;22.20;73.40
3976;DHT22;2002;48.812;9.180;2023-07-16T07:58:03;22.30;70.30
3976;DHT22;2002;48.812;9.180;2023-07-16T08:00:28;22.30;72.90
3976;DHT22;2002;48.812;9.180;2023-07-16T08:02:54;22.30;72.90
3976;DHT22;2002;48.812;9.180;2023-07-16T08:05:20;22.20;59.50
3976;DHT22;2002;48.812;9.180;2023-07-16T08:07:45;21.90;43.50
3976;DHT22;2002;48.812;9.180;2023-07-16T08:10:11;22.10;58.10
3976;DHT22;2002;48.812;9.180;2023-07-16T08:12:36;22.20;68.80
3976;DHT22;2002;48.812;9.180;2023-07-16T08:15:02;22.30;62.00
3976;DHT22;2002;48.812;9.180;2023-07-16T08:17:29;22.30;65.30
3976;DHT22;2002;48.812;9.180;2023-07-16T08:19:54;22.40;68.30
3976;DHT22;2002;48.812;9.180;2023-07-16T08:22:21;22.30;57.70
3976;DHT22;2002;48.812;9.180;2023-07-16T08:24:50;22.10;41.20
3976;DHT22;2002;48.812;9.180;2023-07-16T08:27:16;22.10;55.60
3976;DHT22;2002;48.812;9.180;2023-07-16T08:29:41;22.10;60.00
3976;DHT22;2002;48.812;9.180;2023-07-16T08:32:07;22.30;58.80
3976;DHT22;2002;48.812;9.180;2023-07-16T08:34:33;22.30;64.70
3976;DHT22;2002;48.812;9.180;2023-07-16T08:36:58;22.40;63.30
3976;DHT22;2002;48.812;9.180;2023-07-16T08:39:24;22.40;66.30
3976;DHT22;2002;48.812;9.180;2023-07-16T08:41:50;22.40;69.50
3976;DHT22;2002;48.812;9.180;2023-07-16T08:44:16;22.50;64.40
3976;DHT22;2002;48.812;9.180;2023-07-16T08:46:42;22.40;69.40
3976;DHT22;2002;48.812;9.180;2023-07-16T08:49:08;22.30;64.30
3976;DHT22;2002;48.812;9.180;2023-07-16T08:51:35;22.20;67.80
3976;DHT22;2002;48.812;9.180;2023-07-16T08:54:01;22.10;73.10
3976;DHT22;2002;48.812;9.180;2023-07-16T08:56:27;22.10;73.60
3976;DHT22;2002;48.812;9.180;2023-07-16T08:58:54;22.30;72.90
3976;DHT22;2002;48.812;9.180;2023-07-16T09:01:23;22.40;70.30
3976;DHT22;2002;48.812;9.180;2023-07-16T09:03:49;22.40;67.50
3976;DHT22;2002;48.812;9.180;2023-07-16T09:06:15;22.30;73.50
3976;DHT22;2002;48.812;9.180;2023-07-16T09:08:41;22.20;74.60
3976;DHT22;2002;48.812;9.180;2023-07-16T09:11:11;22.10;73.70
3976;DHT22;2002;48.812;9.180;2023-07-16T09:13:37;22.10;61.90
3976;DHT22;2002;48.812;9.180;2023-07-16T09:16:03;22.20;68.70
3976;DHT22;2002;48.812;9.180;2023-07-16T09:18:29;22.30;70.00
3976;DHT22;2002;48.812;9.180;2023-07-16T09:20:58;22.40;64.90
3976;DHT22;2002;48.812;9.180;2023-07-16T09:23:27;22.40;72.30
3976;DHT22;2002;48.812;9.180;2023-07-16T09:25:54;22.20;70.10
3976;DHT22;2002;48.812;9.180;2023-07-16T09:28:19;22.20;71.30
3976;DHT22;2002;48.812;9.180;2023-07-16T09:30:46;22.10;70.30
3976;DHT22;2002;48.812;9.180;2023-07-16T09:33:20;22.10;63.60
3976;DHT22;2002;48.812;9.180;2023-07-16T09:35:50;22.00;65.90
3976;DHT22;2002;48.812;9.180;2023-07-16T09:38:16;22.20;70.10
3976;DHT22;2002;48.812;9.180;2023-07-16T09:40:43;22.30;71.00
3976;DHT22;2002;48.812;9.180;2023-07-16T09:43:10;22.20;74.30
3976;DHT22;2002;48.812;9.180;2023-07-16T09:45:36;22.10;76.20
3976;DHT22;2002;48.812;9.180;2023-07-16T09:48:05;22.10;77.20
3976;DHT22;2002;48.812;9.180;2023-07-16T09:50:34;22.00;55.30
3976;DHT22;2002;48.812;9.180;2023-07-16T09:53:00;21.90;53.60
3976;DHT22;2002;48.812;9.180;2023-07-16T09:55:31;22.10;63.80
3976;DHT22;2002;48.812;9.180;2023-07-16T09:58:00;22.20;67.30
3976;DHT22;2002;48.812;9.180;2023-07-16T10:00:27;22.30;62.40
3976;DHT22;2002;48.812;9.180;2023-07-16T10:02:54;22.30;51.40
3976;DHT22;2002;48.812;9.180;2023-07-16T10:05:24;22.10;47.20
3976;DHT22;2002;48.812;9.180;2023-07-16T10:07:54;22.20;58.80
3976;DHT22;2002;48.812;9.180;2023-07-16T10:10:21;22.20;58.40
3976;DHT22;2002;48.812;9.180;2023-07-16T10:13:02;22.30;65.20
3976;DHT22;2002;48.812;9.180;2023-07-16T10:15:29;22.40;60.50
3976;DHT22;2002;48.812;9.180;2023-07-16T10:17:56;22.30;68.20
3976;DHT22;2002;48.812;9.180;2023-07-16T10:20:36;22.10;77.50
3976;DHT22;2002;48.812;9.180;2023-07-16T10:23:12;21.90;50.60
3976;DHT22;2002;48.812;9.180;2023-07-16T10:25:57;22.10;58.00
3976;DHT22;2002;48.812;9.180;2023-07-16T10:28:22;22.20;65.20
3976;DHT22;2002;48.812;9.180;2023-07-16T10:30:49;22.30;65.10
3976;DHT22;2002;48.812;9.180;2023-07-16T10:33:15;22.30;66.30
3976;DHT22;2002;48.812;9.180;2023-07-16T10:35:42;22.30;63.50
3976;DHT22;2002;48.812;9.180;2023-07-16T10:38:07;22.10;55.80
3976;DHT22;2002;48.812;9.180;2023-07-16T10:40:38;22.00;41.50
3976;DHT22;2002;48.812;9.180;2023-07-16T10:43:05;21.90;76.70
3976;DHT22;2002;48.812;9.180;2023-07-16T10:45:31;22.10;59.80
3976;DHT22;2002;48.812;9.180;2023-07-16T10:47:57;22.20;62.00
3976;DHT22;2002;48.812;9.180;2023-07-16T10:50:22;22.20;65.60
3976;DHT22;2002;48.812;9.180;2023-07-16T10:52:51;22.30;62.10
3976;DHT22;2002;48.812;9.180;2023-07-16T10:55:18;22.30;73.20
3976;DHT22;2002;48.812;9.180;2023-07-16T10:57:43;22.30;62.90
3976;DHT22;2002;48.812;9.180;2023-07-16T11:00:10;22.30;67.50
3976;DHT22;2002;48.812;9.180;2023-07-16T11:02:39;22.20;75.00
3976;DHT22;2002;48.812;9.180;2023-07-16T11:05:12;22.10;78.40
3976;DHT22;2002;48.812;9.180;2023-07-16T11:07:46;22.00;78.00
3976;DHT22;2002;48.812;9.180;2023-07-16T11:10:11;22.10;79.80
3976;DHT22;2002;48.812;9.180;2023-07-16T11:12:37;22.20;95.00
3976;DHT22;2002;48.812;9.180;2023-07-16T11:15:03;22.30;78.40
3976;DHT22;2002;48.812;9.180;2023-07-16T11:17:29;22.30;84.20
3976;DHT22;2002;48.812;9.180;2023-07-16T11:19:55;22.20;95.10
3976;DHT22;2002;48.812;9.180;2023-07-16T11:22:27;22.10;98.40
3976;DHT22;2002;48.812;9.180;2023-07-16T11:24:53;22.10;99.90
3976;DHT22;2002;48.812;9.180;2023-07-16T11:27:25;22.10;94.60
3976;DHT22;2002;48.812;9.180;2023-07-16T11:29:55;22.20;93.10
3976;DHT22;2002;48.812;9.180;2023-07-16T11:32:32;22.10;73.20
3976;DHT22;2002;48.812;9.180;2023-07-16T11:34:58;21.90;64.80
3976;DHT22;2002;48.812;9.180;2023-07-16T11:37:25;21.80;54.00
3976;DHT22;2002;48.812;9.180;2023-07-16T11:39:54;21.80;66.60
3976;DHT22;2002;48.812;9.180;2023-07-16T11:42:31;22.00;74.10
3976;DHT22;2002;48.812;9.180;2023-07-16T11:44:57;22.10;75.80
3976;DHT22;2002;48.812;9.180;2023-07-16T11:47:24;22.20;99.90
3976;DHT22;2002;48.812;9.180;2023-07-16T11:49:50;22.30;78.30
3976;DHT22;2002;48.812;9.180;2023-07-16T11:52:27;22.30;84.70
3976;DHT22;2002;48.812;9.180;2023-07-16T11:54:53;22.30;79.50
3976;DHT22;2002;48.812;9.180;2023-07-16T11:57:20;22.20;69.00
3976;DHT22;2002;48.812;9.180;2023-07-16T11:59:46;22.00;63.00
3976;DHT22;2002;48.812;9.180;2023-07-16T12:02:12;21.90;63.00
3976;DHT22;2002;48.812;9.180;2023-07-16T12:04:37;21.80;54.00
3976;DHT22;2002;48.812;9.180;2023-07-16T12:07:03;22.00;71.30
3976;DHT22;2002;48.812;9.180;2023-07-16T12:09:29;22.10;99.90
3976;DHT22;2002;48.812;9.180;2023-07-16T12:11:54;22.20;76.10
3976;DHT22;2002;48.812;9.180;2023-07-16T12:14:20;22.20;69.70
3976;DHT22;2002;48.812;9.180;2023-07-16T12:16:45;22.00;59.20
3976;DHT22;2002;48.812;9.180;2023-07-16T12:19:11;21.90;57.00
3976;DHT22;2002;48.812;9.180;2023-07-16T12:21:37;21.70;41.40
3976;DHT22;2002;48.812;9.180;2023-07-16T12:24:02;21.80;61.30
3976;DHT22;2002;48.812;9.180;2023-07-16T12:26:28;22.00;66.70
3976;DHT22;2002;48.812;9.180;2023-07-16T12:28:54;22.10;67.20
3976;DHT22;2002;48.812;9.180;2023-07-16T12:31:19;22.20;66.70
3976;DHT22;2002;48.812;9.180;2023-07-16T12:33:48;22.30;68.10
3976;DHT22;2002;48.812;9.180;2023-07-16T12:36:14;22.10;48.90
3976;DHT22;2002;48.812;9.180;2023-07-16T12:38:40;21.90;43.10
3976;DHT22;2002;48.812;9.180;2023-07-16T12:41:06;21.80;43.60
3976;DHT22;2002;48.812;9.180;2023-07-16T12:43:32;21.70;48.00
3976;DHT22;2002;48.812;9.180;2023-07-16T12:46:00;21.70;56.80
3976;DHT22;2002;48.812;9.180;2023-07-16T12:48:28;21.70;67.90
3976;DHT22;2002;48.812;9.180;2023-07-16T12:50:53;21.90;68.50
3976;DHT22;2002;48.812;9.180;2023-07-16T12:53:19;22.00;71.50
3976;DHT22;2002;48.812;9.180;2023-07-16T12:55:45;22.10;70.40
3976;DHT22;2002;48.812;9.180;2023-07-16T12:58:10;22.10;59.20
3976;DHT22;2002;48.812;9.180;2023-07-16T13:00:36;21.90;56.80
3976;DHT22;2002;48.812;9.180;2023-07-16T13:03:01;21.80;50.70
3976;DHT22;2002;48.812;9.180;2023-07-16T13:05:28;21.70;49.70
3976;DHT22;2002;48.812;9.180;2023-07-16T13:07:53;21.70;49.40
3976;DHT22;2002;48.812;9.180;2023-07-16T13:10:19;21.60;54.60
3976;DHT22;2002;48.812;9.180;2023-07-16T13:12:44;21.80;62.50
3976;DHT22;2002;48.812;9.180;2023-07-16T13:15:10;22.00;66.00
3976;DHT22;2002;48.812;9.180;2023-07-16T13:17:35;22.10;59.10
3976;DHT22;2002;48.812;9.180;2023-07-16T13:20:02;22.10;62.70
3976;DHT22;2002;48.812;9.180;2023-07-16T13:22:28;22.10;66.50
3976;DHT22;2002;48.812;9.180;2023-07-16T13:24:54;22.00;52.40
3976;DHT22;2002;48.812;9.180;2023-07-16T13:27:20;21.80;39.90
3976;DHT22;2002;48.812;9.180;2023-07-16T13:29:46;21.60;40.60
3976;DHT22;2002;48.812;9.180;2023-07-16T13:32:12;21.60;42.70
3976;DHT22;2002;48.812;9.180;2023-07-16T13:34:38;21.60;52.60
3976;DHT22;2002;48.812;9.180;2023-07-16T13:37:04;21.70;60.30
3976;DHT22;2002;48.812;9.180;2023-07-16T13:39:29;21.90;58.00
3976;DHT22;2002;48.812;9.180;2023-07-16T13:41:55;22.00;56.80
3976;DHT22;2002;48.812;9.180;2023-07-16T13:44:21;22.10;69.70
3976;DHT22;2002;48.812;9.180;2023-07-16T13:46:47;22.10;66.00
3976;DHT22;2002;48.812;9.180;2023-07-16T13:49:12;22.00;69.40
3976;DHT22;2002;48.812;9.180;2023-07-16T13:51:39;21.90;59.10
3976;DHT22;2002;48.812;9.180;2023-07-16T13:54:04;21.80;55.80
3976;DHT22;2002;48.812;9.180;2023-07-16T13:56:30;21.70;60.20
3976;DHT22;2002;48.812;9.180;2023-07-16T13:58:56;21.80;63.60
3976;DHT22;2002;48.812;9.180;2023-07-16T14:01:22;21.90;62.30
3976;DHT22;2002;48.812;9.180;2023-07-16T14:03:48;22.00;63.50
3976;DHT22;2002;48.812;9.180;2023-07-16T14:06:14;22.10;72.80
3976;DHT22;2002;48.812;9.180;2023-07-16T14:08:39;22.00;52.00
3976;DHT22;2002;48.812;9.180;2023-07-16T14:11:05;21.80;45.80
3976;DHT22;2002;48.812;9.180;2023-07-16T14:13:31;21.70;40.20
3976;DHT22;2002;48.812;9.180;2023-07-16T14:15:56;21.60;38.60
3976;DHT22;2002;48.812;9.180;2023-07-16T14:18:22;21.60;38.40
3976;DHT22;2002;48.812;9.180;2023-07-16T14:20:48;21.60;45.50
3976;DHT22;2002;48.812;9.180;2023-07-16T14:23:13;21.80;52.30
3976;DHT22;2002;48.812;9.180;2023-07-16T14:25:39;22.00;56.90
3976;DHT22;2002;48.812;9.180;2023-07-16T14:28:04;22.00;90.50
3976;DHT22;2002;48.812;9.180;2023-07-16T14:30:30;21.90;50.60
3976;DHT22;2002;48.812;9.180;2023-07-16T14:32:56;21.80;45.30
3976;DHT22;2002;48.812;9.180;2023-07-16T14:35:22;21.70;41.60
3976;DHT22;2002;48.812;9.180;2023-07-16T14:37:48;21.60;38.80
3976;DHT22;2002;48.812;9.180;2023-07-16T14:40:13;21.50;42.00
3976;DHT22;2002;48.812;9.180;2023-07-16T14:42:39;21.60;53.30
3976;DHT22;2002;48.812;9.180;2023-07-16T14:45:06;21.80;53.90
3976;DHT22;2002;48.812;9.180;2023-07-16T14:47:33;21.90;58.80
3976;DHT22;2002;48.812;9.180;2023-07-16T14:49:59;22.00;60.40
3976;DHT22;2002;48.812;9.180;2023-07-16T14:52:25;21.90;45.00
3976;DHT22;2002;48.812;9.180;2023-07-16T14:54:50;21.70;38.90
3976;DHT22;2002;48.812;9.180;2023-07-16T14:57:16;21.60;31.00
3976;DHT22;2002;48.812;9.180;2023-07-16T14:59:42;21.50;36.60
3976;DHT22;2002;48.812;9.180;2023-07-16T15:02:08;21.50;43.30
3976;DHT22;2002;48.812;9.180;2023-07-16T15:04:34;21.50;49.70
3976;DHT22;2002;48.812;9.180;2023-07-16T15:07:00;21.70;52.10
3976;DHT22;2002;48.812;9.180;2023-07-16T15:09:25;21.90;53.90
3976;DHT22;2002;48.812;9.180;2023-07-16T15:11:51;22.00;58.70
3976;DHT22;2002;48.812;9.180;2023-07-16T15:14:17;21.90;44.80
3976;DHT22;2002;48.812;9.180;2023-07-16T15:16:42;21.70;34.40
3976;DHT22;2002;48.812;9.180;2023-07-16T15:19:08;21.60;36.70
3976;DHT22;2002;48.812;9.180;2023-07-16T15:21:35;21.50;29.40
3976;DHT22;2002;48.812;9.180;2023-07-16T15:24:04;21.60;48.00
3976;DHT22;2002;48.812;9.180;2023-07-16T15:26:29;21.80;53.40
3976;DHT22;2002;48.812;9.180;2023-07-16T15:28:55;21.90;51.50
3976;DHT22;2002;48.812;9.180;2023-07-16T15:31:20;22.00;53.40
3976;DHT22;2002;48.812;9.180;2023-07-16T15:33:53;22.10;51.80
3976;DHT22;2002;48.812;9.180;2023-07-16T15:36:18;22.10;42.10
3976;DHT22;2002;48.812;9.180;2023-07-16T15:38:44;21.90;40.70
3976;DHT22;2002;48.812;9.180;2023-07-16T15:41:10;21.90;45.80
3976;DHT22;2002;48.812;9.180;2023-07-16T15:43:37;22.00;44.50
3976;DHT22;2002;48.812;9.180;2023-07-16T15:46:03;22.10;47.30
3976;DHT22;2002;48.812;9.180;2023-07-16T15:48:28;22.30;44.10
3976;DHT22;2002;48.812;9.180;2023-07-16T15:50:57;22.10;41.50
3976;DHT22;2002;48.812;9.180;2023-07-16T15:53:23;22.20;41.90
3976;DHT22;2002;48.812;9.180;2023-07-16T15:55:49;22.30;43.10
3976;DHT22;2002;48.812;9.180;2023-07-16T15:58:14;22.50;46.10
3976;DHT22;2002;48.812;9.180;2023-07-16T16:00:40;22.70;48.80
3976;DHT22;2002;48.812;9.180;2023-07-16T16:03:06;22.60;37.80
3976;DHT22;2002;48.812;9.180;2023-07-16T16:05:32;22.30;31.90